createdAt,value
2018-02-23T00:00:05.436Z,0.00
2018-02-23T00:01:05.319Z,0.00
2018-02-23T00:02:05.209Z,0.00
2018-02-23T00:03:05.101Z,0.00
2018-02-23T00:04:04.987Z,0.00
2018-02-23T00:05:04.886Z,0.00
2018-02-23T00:06:04.786Z,0.00
2018-02-23T00:07:04.669Z,0.00
2018-02-23T00:08:04.816Z,0.00
2018-02-23T00:09:04.458Z,0.00
2018-02-23T00:10:04.346Z,0.00
2018-02-23T00:11:04.236Z,0.00
2018-02-23T00:12:04.122Z,0.00
2018-02-23T00:13:04.031Z,0.00
2018-02-23T00:14:03.923Z,0.00
2018-02-23T00:15:03.810Z,0.00
2018-02-23T00:16:03.701Z,0.00
2018-02-23T00:17:03.598Z,0.00
2018-02-23T00:18:03.489Z,0.00
2018-02-23T00:19:03.391Z,0.00
2018-02-23T00:20:03.268Z,0.00
2018-02-23T00:21:03.166Z,0.00
2018-02-23T00:22:03.057Z,0.00
2018-02-23T00:23:02.947Z,0.00
2018-02-23T00:24:02.842Z,0.00
2018-02-23T00:25:02.726Z,0.00
2018-02-23T00:26:02.625Z,0.00
2018-02-23T00:27:02.517Z,0.00
2018-02-23T00:28:02.401Z,0.00
2018-02-23T00:29:02.301Z,0.00
2018-02-23T00:30:02.192Z,0.00
2018-02-23T00:31:02.075Z,0.00
2018-02-23T00:32:01.971Z,0.00
2018-02-23T00:33:01.853Z,0.00
2018-02-23T00:34:01.748Z,0.00
2018-02-23T00:35:01.652Z,0.00
2018-02-23T00:36:01.539Z,0.00
2018-02-23T00:37:01.425Z,0.00
2018-02-23T00:38:01.338Z,0.00
2018-02-23T00:39:01.214Z,0.00
2018-02-23T00:40:01.111Z,0.00
2018-02-23T00:41:00.993Z,0.00
2018-02-23T00:42:00.883Z,0.00
2018-02-23T00:43:01.032Z,0.00
2018-02-23T00:44:00.673Z,0.00
2018-02-23T00:45:00.611Z,0.00
2018-02-23T00:46:00.451Z,0.00
2018-02-23T00:47:00.345Z,0.00
2018-02-23T00:48:00.247Z,0.00
2018-02-23T00:49:00.135Z,0.00
2018-02-23T00:50:00.024Z,0.00
2018-02-23T00:50:59.910Z,0.00
2018-02-23T00:51:59.807Z,0.00
2018-02-23T00:52:59.694Z,0.00
2018-02-23T00:53:59.585Z,0.00
2018-02-23T00:54:59.477Z,0.00
2018-02-23T00:55:59.382Z,0.00
2018-02-23T00:56:59.263Z,0.00
2018-02-23T00:57:59.152Z,0.00
2018-02-23T00:58:59.046Z,0.00
2018-02-23T00:59:58.931Z,0.00
2018-02-23T01:00:58.822Z,0.00
2018-02-23T01:01:58.722Z,0.00
2018-02-23T01:02:58.614Z,0.00
2018-02-23T01:03:58.498Z,0.00
2018-02-23T01:04:58.390Z,0.00
2018-02-23T01:05:58.287Z,0.00
2018-02-23T01:06:58.174Z,0.00
2018-02-23T01:07:58.064Z,0.00
2018-02-23T01:08:57.959Z,0.00
2018-02-23T01:09:57.852Z,0.00
2018-02-23T01:10:57.740Z,0.00
2018-02-23T01:11:57.623Z,0.00
2018-02-23T01:12:57.829Z,0.00
2018-02-23T01:13:57.403Z,0.00
2018-02-23T01:14:57.316Z,0.00
2018-02-23T01:15:57.199Z,0.00
2018-02-23T01:16:57.088Z,0.00
2018-02-23T01:17:56.984Z,0.00
2018-02-23T01:18:56.869Z,0.00
2018-02-23T01:19:56.764Z,0.00
2018-02-23T01:20:56.655Z,0.00
2018-02-23T01:21:56.541Z,0.00
2018-02-23T01:22:56.437Z,0.00
2018-02-23T01:23:56.326Z,0.00
2018-02-23T01:24:56.219Z,0.00
2018-02-23T01:25:56.105Z,0.00
2018-02-23T01:26:55.997Z,0.00
2018-02-23T01:27:55.889Z,0.00
2018-02-23T01:28:55.788Z,0.00
2018-02-23T01:29:55.665Z,0.00
2018-02-23T01:30:55.566Z,0.00
2018-02-23T01:31:55.461Z,0.00
2018-02-23T01:32:55.349Z,0.00
2018-02-23T01:33:55.240Z,0.00
2018-02-23T01:34:55.121Z,0.00
2018-02-23T01:35:55.017Z,0.00
2018-02-23T01:36:54.905Z,0.00
2018-02-23T01:37:55.099Z,0.00
2018-02-23T01:38:54.688Z,0.00
2018-02-23T01:39:54.584Z,0.00
2018-02-23T01:40:54.468Z,0.00
2018-02-23T01:41:54.372Z,0.00
2018-02-23T01:42:54.260Z,0.00
2018-02-23T01:43:54.149Z,0.00
2018-02-23T01:44:54.043Z,0.00
2018-02-23T01:45:53.923Z,0.00
2018-02-23T01:46:53.831Z,0.00
2018-02-23T01:47:53.712Z,0.00
2018-02-23T01:48:53.601Z,0.00
2018-02-23T01:49:53.489Z,0.00
2018-02-23T01:50:53.380Z,0.00
2018-02-23T01:51:53.283Z,0.00
2018-02-23T01:52:53.164Z,0.00
2018-02-23T01:53:53.066Z,0.00
2018-02-23T01:54:52.945Z,0.00
2018-02-23T01:55:52.852Z,0.00
2018-02-23T01:56:52.729Z,0.00
2018-02-23T01:57:52.930Z,0.00
2018-02-23T01:58:52.511Z,0.00
2018-02-23T01:59:52.404Z,0.00
2018-02-23T02:00:52.291Z,0.00
2018-02-23T02:01:52.181Z,0.00
2018-02-23T02:02:52.071Z,0.00
2018-02-23T02:03:51.966Z,0.00
2018-02-23T02:04:51.864Z,0.00
2018-02-23T02:05:51.759Z,0.00
2018-02-23T02:06:51.648Z,0.00
2018-02-23T02:07:51.776Z,0.00
2018-02-23T02:08:51.433Z,0.00
2018-02-23T02:09:51.312Z,0.00
2018-02-23T02:10:51.208Z,0.00
2018-02-23T02:11:51.092Z,0.00
2018-02-23T02:12:50.983Z,0.00
2018-02-23T02:13:50.871Z,0.00
2018-02-23T02:14:50.764Z,0.00
2018-02-23T02:15:50.653Z,0.00
2018-02-23T02:16:50.549Z,0.00
2018-02-23T02:17:50.438Z,0.00
2018-02-23T02:18:50.335Z,0.00
2018-02-23T02:19:50.215Z,0.00
2018-02-23T02:20:50.112Z,0.00
2018-02-23T02:21:50.003Z,0.00
2018-02-23T02:22:50.186Z,0.00
2018-02-23T02:23:49.784Z,0.00
2018-02-23T02:24:49.680Z,0.00
2018-02-23T02:25:49.563Z,0.00
2018-02-23T02:26:49.453Z,0.00
2018-02-23T02:27:49.349Z,0.00
2018-02-23T02:28:49.230Z,0.00
2018-02-23T02:29:49.139Z,0.00
2018-02-23T02:30:49.012Z,0.00
2018-02-23T02:31:48.915Z,0.00
2018-02-23T02:32:48.802Z,0.00
2018-02-23T02:33:48.689Z,0.00
2018-02-23T02:34:48.577Z,0.00
2018-02-23T02:35:48.474Z,0.00
2018-02-23T02:36:48.353Z,0.00
2018-02-23T02:37:48.262Z,0.00
2018-02-23T02:38:48.139Z,0.00
2018-02-23T02:39:48.033Z,0.00
2018-02-23T02:40:47.920Z,0.00
2018-02-23T02:41:47.818Z,0.00
2018-02-23T02:42:47.697Z,0.00
2018-02-23T02:43:47.596Z,0.00
2018-02-23T02:44:47.502Z,0.00
2018-02-23T02:45:47.373Z,0.00
2018-02-23T02:46:47.262Z,0.00
2018-02-23T02:47:47.157Z,0.00
2018-02-23T02:48:47.045Z,0.00
2018-02-23T02:49:46.940Z,0.00
2018-02-23T02:50:46.822Z,0.00
2018-02-23T02:51:46.726Z,0.00
2018-02-23T02:52:46.913Z,0.00
2018-02-23T02:53:46.506Z,0.00
2018-02-23T02:54:46.391Z,0.00
2018-02-23T02:55:46.285Z,0.00
2018-02-23T02:56:46.174Z,0.00
2018-02-23T02:57:46.063Z,0.00
2018-02-23T02:58:45.946Z,0.00
2018-02-23T02:59:45.848Z,0.00
2018-02-23T03:00:45.728Z,0.00
2018-02-23T03:01:45.621Z,0.00
2018-02-23T03:02:45.812Z,0.00
2018-02-23T03:03:45.411Z,0.00
2018-02-23T03:04:45.287Z,0.00
2018-02-23T03:05:45.188Z,0.00
2018-02-23T03:06:45.078Z,0.00
2018-02-23T03:07:44.971Z,0.00
2018-02-23T03:08:44.858Z,0.00
2018-02-23T03:09:44.744Z,0.00
2018-02-23T03:10:44.633Z,0.00
2018-02-23T03:11:44.535Z,0.00
2018-02-23T03:12:44.410Z,0.00
2018-02-23T03:13:44.319Z,0.00
2018-02-23T03:14:44.191Z,0.00
2018-02-23T03:15:44.088Z,0.00
2018-02-23T03:16:43.976Z,0.00
2018-02-23T03:17:43.866Z,0.00
2018-02-23T03:18:43.755Z,0.00
2018-02-23T03:19:43.657Z,0.00
2018-02-23T03:20:43.539Z,0.00
2018-02-23T03:21:43.433Z,0.00
2018-02-23T03:22:43.318Z,0.00
2018-02-23T03:23:43.212Z,0.00
2018-02-23T03:24:43.098Z,0.00
2018-02-23T03:25:42.997Z,0.00
2018-02-23T03:26:42.878Z,0.00
2018-02-23T03:27:42.781Z,0.00
2018-02-23T03:28:42.655Z,0.00
2018-02-23T03:29:42.557Z,0.00
2018-02-23T03:30:42.445Z,0.00
2018-02-23T03:31:42.336Z,0.00
2018-02-23T03:32:42.221Z,0.00
2018-02-23T03:33:42.123Z,0.00
2018-02-23T03:34:42.008Z,0.00
2018-02-23T03:35:41.907Z,0.00
2018-02-23T03:36:41.784Z,0.00
2018-02-23T03:37:41.679Z,0.00
2018-02-23T03:38:41.560Z,0.00
2018-02-23T03:39:41.443Z,0.00
2018-02-23T03:40:41.343Z,0.00
2018-02-23T03:41:41.226Z,0.00
2018-02-23T03:42:41.126Z,0.00
2018-02-23T03:43:41.012Z,0.00
2018-02-23T03:44:40.922Z,0.00
2018-02-23T03:45:40.790Z,0.00
2018-02-23T03:46:40.691Z,0.00
2018-02-23T03:47:40.566Z,0.00
2018-02-23T03:48:40.480Z,0.00
2018-02-23T03:49:40.350Z,0.00
2018-02-23T03:50:40.250Z,0.00
2018-02-23T03:51:40.146Z,0.00
2018-02-23T03:52:40.031Z,0.00
2018-02-23T03:53:39.914Z,0.00
2018-02-23T03:54:39.801Z,0.00
2018-02-23T03:55:39.690Z,0.00
2018-02-23T03:56:39.630Z,0.00
2018-02-23T03:57:39.476Z,0.00
2018-02-23T03:58:39.378Z,0.00
2018-02-23T03:59:39.258Z,0.00
2018-02-23T04:00:39.139Z,0.00
2018-02-23T04:01:39.046Z,0.00
2018-02-23T04:02:38.920Z,0.00
2018-02-23T04:03:38.823Z,0.00
2018-02-23T04:04:38.704Z,0.00
2018-02-23T04:05:38.601Z,0.00
2018-02-23T04:06:38.482Z,0.00
2018-02-23T04:07:38.368Z,0.00
2018-02-23T04:08:38.260Z,0.00
2018-02-23T04:09:38.149Z,0.00
2018-02-23T04:10:38.048Z,0.00
2018-02-23T04:11:37.927Z,0.00
2018-02-23T04:12:37.831Z,0.00
2018-02-23T04:13:37.704Z,0.00
2018-02-23T04:14:37.607Z,0.00
2018-02-23T04:15:37.491Z,0.00
2018-02-23T04:16:37.396Z,0.00
2018-02-23T04:17:37.279Z,0.00
2018-02-23T04:18:37.151Z,0.00
2018-02-23T04:19:37.049Z,0.00
2018-02-23T04:20:36.936Z,0.00
2018-02-23T04:21:36.831Z,0.00
2018-02-23T04:22:37.026Z,0.00
2018-02-23T04:23:36.620Z,0.00
2018-02-23T04:24:36.496Z,0.00
2018-02-23T04:25:36.393Z,0.00
2018-02-23T04:26:36.275Z,0.00
2018-02-23T04:27:36.176Z,0.00
2018-02-23T04:28:36.061Z,0.00
2018-02-23T04:29:35.954Z,0.00
2018-02-23T04:30:35.843Z,0.00
2018-02-23T04:31:35.727Z,0.00
2018-02-23T04:32:35.624Z,0.00
2018-02-23T04:33:35.511Z,0.00
2018-02-23T04:34:35.400Z,0.00
2018-02-23T04:35:35.287Z,0.00
2018-02-23T04:36:35.186Z,0.00
2018-02-23T04:37:35.064Z,0.00
2018-02-23T04:38:34.966Z,0.00
2018-02-23T04:39:34.848Z,0.00
2018-02-23T04:40:34.798Z,0.00
2018-02-23T04:41:34.635Z,0.00
2018-02-23T04:42:34.511Z,0.00
2018-02-23T04:43:34.412Z,0.00
2018-02-23T04:44:34.296Z,0.00
2018-02-23T04:45:34.186Z,0.00
2018-02-23T04:46:34.087Z,0.00
2018-02-23T04:47:33.982Z,0.00
2018-02-23T04:48:33.852Z,0.00
2018-02-23T04:49:33.748Z,0.00
2018-02-23T04:50:33.638Z,0.00
2018-02-23T04:51:33.554Z,0.00
2018-02-23T04:52:33.420Z,0.00
2018-02-23T04:53:33.304Z,0.00
2018-02-23T04:54:33.203Z,0.00
2018-02-23T04:55:33.081Z,0.00
2018-02-23T04:56:32.981Z,0.00
2018-02-23T04:57:33.118Z,0.00
2018-02-23T04:58:32.760Z,0.00
2018-02-23T04:59:32.652Z,0.00
2018-02-23T05:00:32.536Z,0.00
2018-02-23T05:01:32.431Z,0.00
2018-02-23T05:02:32.319Z,0.00
2018-02-23T05:03:32.203Z,0.00
2018-02-23T05:04:32.101Z,0.00
2018-02-23T05:05:31.985Z,0.00
2018-02-23T05:06:31.879Z,0.00
2018-02-23T05:07:31.779Z,0.00
2018-02-23T05:08:31.650Z,0.00
2018-02-23T05:09:31.549Z,0.00
2018-02-23T05:10:31.436Z,0.00
2018-02-23T05:11:31.324Z,0.00
2018-02-23T05:12:31.218Z,0.00
2018-02-23T05:13:31.112Z,0.00
2018-02-23T05:14:30.996Z,0.00
2018-02-23T05:15:30.881Z,0.00
2018-02-23T05:16:30.775Z,0.00
2018-02-23T05:17:30.958Z,0.00
2018-02-23T05:18:30.552Z,0.00
2018-02-23T05:19:30.435Z,0.00
2018-02-23T05:20:30.343Z,0.00
2018-02-23T05:21:30.224Z,0.00
2018-02-23T05:22:30.114Z,0.00
2018-02-23T05:23:30.005Z,0.00
2018-02-23T05:24:29.893Z,0.00
2018-02-23T05:25:29.786Z,0.00
2018-02-23T05:26:29.665Z,0.00
2018-02-23T05:27:29.562Z,0.00
2018-02-23T05:28:29.454Z,0.00
2018-02-23T05:29:29.341Z,0.00
2018-02-23T05:30:29.237Z,0.00
2018-02-23T05:31:29.113Z,0.00
2018-02-23T05:32:29.005Z,0.00
2018-02-23T05:33:28.902Z,0.00
2018-02-23T05:34:28.788Z,4.00
2018-02-23T05:35:28.673Z,4.00
2018-02-23T05:36:28.577Z,0.00
2018-02-23T05:37:28.454Z,4.00
2018-02-23T05:38:28.359Z,4.00
2018-02-23T05:39:28.244Z,4.00
2018-02-23T05:40:28.124Z,4.00
2018-02-23T05:41:28.023Z,4.00
2018-02-23T05:42:27.906Z,4.00
2018-02-23T05:43:27.795Z,8.00
2018-02-23T05:44:27.682Z,8.00
2018-02-23T05:45:27.590Z,12.00
2018-02-23T05:46:27.470Z,16.00
2018-02-23T05:47:27.363Z,16.00
2018-02-23T05:48:27.247Z,16.00
2018-02-23T05:49:27.139Z,20.00
2018-02-23T05:50:27.031Z,28.00
2018-02-23T05:51:26.911Z,32.00
2018-02-23T05:52:27.113Z,32.00
2018-02-23T05:53:26.688Z,44.00
2018-02-23T05:54:26.581Z,48.00
2018-02-23T05:55:26.480Z,52.00
2018-02-23T05:56:26.353Z,60.00
2018-02-23T05:57:26.252Z,68.00
2018-02-23T05:58:26.154Z,80.00
2018-02-23T05:59:26.028Z,92.00
2018-02-23T06:00:25.925Z,100.00
2018-02-23T06:01:25.806Z,112.00
2018-02-23T06:02:25.703Z,128.00
2018-02-23T06:03:25.585Z,140.00
2018-02-23T06:04:25.482Z,156.00
2018-02-23T06:05:25.386Z,172.00
2018-02-23T06:06:25.244Z,188.00
2018-02-23T06:07:25.145Z,204.00
2018-02-23T06:08:25.039Z,228.00
2018-02-23T06:09:24.921Z,248.00
2018-02-23T06:10:24.808Z,272.00
2018-02-23T06:11:24.705Z,296.00
2018-02-23T06:12:24.584Z,316.00
2018-02-23T06:13:24.482Z,344.00
2018-02-23T06:14:24.371Z,368.00
2018-02-23T06:15:24.260Z,392.00
2018-02-23T06:16:24.153Z,424.00
2018-02-23T06:17:24.037Z,452.00
2018-02-23T06:18:23.920Z,480.00
2018-02-23T06:19:23.822Z,516.00
2018-02-23T06:20:23.704Z,540.00
2018-02-23T06:21:23.605Z,572.00
2018-02-23T06:22:23.480Z,608.00
2018-02-23T06:23:23.382Z,640.00
2018-02-23T06:24:23.271Z,672.00
2018-02-23T06:25:23.148Z,704.00
2018-02-23T06:26:23.044Z,740.00
2018-02-23T06:27:22.929Z,772.00
2018-02-23T06:28:22.828Z,808.00
2018-02-23T06:29:22.717Z,844.00
2018-02-23T06:30:22.596Z,876.00
2018-02-23T06:31:22.494Z,912.00
2018-02-23T06:32:22.374Z,948.00
2018-02-23T06:33:22.272Z,984.00
2018-02-23T06:34:22.157Z,1020.00
2018-02-23T06:35:22.040Z,1060.00
2018-02-23T06:36:21.933Z,1100.00
2018-02-23T06:37:22.068Z,1132.00
2018-02-23T06:38:21.712Z,1168.00
2018-02-23T06:39:21.594Z,1208.00
2018-02-23T06:40:21.495Z,1240.00
2018-02-23T06:41:21.384Z,1276.00
2018-02-23T06:42:21.271Z,1312.00
2018-02-23T06:43:21.173Z,1356.00
2018-02-23T06:44:21.042Z,1392.00
2018-02-23T06:45:20.945Z,1428.00
2018-02-23T06:46:20.836Z,1460.00
2018-02-23T06:47:20.724Z,1500.00
2018-02-23T06:48:20.617Z,1540.00
2018-02-23T06:49:20.488Z,1572.00
2018-02-23T06:50:20.387Z,1600.00
2018-02-23T06:51:20.281Z,1648.00
2018-02-23T06:52:20.166Z,1688.00
2018-02-23T06:53:20.059Z,1708.00
2018-02-23T06:54:19.936Z,1744.00
2018-02-23T06:55:19.832Z,1784.00
2018-02-23T06:56:19.720Z,1808.00
2018-02-23T06:57:19.619Z,1872.00
2018-02-23T06:58:19.502Z,1884.00
2018-02-23T06:59:19.392Z,1912.00
2018-02-23T07:00:19.296Z,1940.00
2018-02-23T07:01:19.173Z,1960.00
2018-02-23T07:02:19.070Z,1992.00
2018-02-23T07:03:18.949Z,1992.00
2018-02-23T07:04:18.838Z,2024.00
2018-02-23T07:05:18.726Z,2072.00
2018-02-23T07:06:18.618Z,2092.00
2018-02-23T07:07:18.502Z,2128.00
2018-02-23T07:08:18.409Z,2144.00
2018-02-23T07:09:18.292Z,2148.00
2018-02-23T07:10:18.176Z,2216.00
2018-02-23T07:11:18.069Z,2240.00
2018-02-23T07:12:17.956Z,2240.00
2018-02-23T07:13:17.852Z,2248.00
2018-02-23T07:14:17.733Z,2284.00
2018-02-23T07:15:17.627Z,2348.00
2018-02-23T07:16:17.523Z,2344.00
2018-02-23T07:17:17.415Z,2336.00
2018-02-23T07:18:17.301Z,2380.00
2018-02-23T07:19:17.192Z,2376.00
2018-02-23T07:20:17.071Z,2400.00
2018-02-23T07:21:16.964Z,2420.00
2018-02-23T07:22:17.114Z,2440.00
2018-02-23T07:23:16.739Z,2476.00
2018-02-23T07:24:16.646Z,2512.00
2018-02-23T07:25:16.517Z,2536.00
2018-02-23T07:26:16.443Z,2564.00
2018-02-23T07:27:16.304Z,2584.00
2018-02-23T07:28:16.184Z,2592.00
2018-02-23T07:29:16.084Z,2644.00
2018-02-23T07:30:15.965Z,2676.00
2018-02-23T07:31:15.860Z,2704.00
2018-02-23T07:32:15.758Z,2708.00
2018-02-23T07:33:15.643Z,2708.00
2018-02-23T07:34:15.537Z,2752.00
2018-02-23T07:35:15.435Z,2824.00
2018-02-23T07:36:15.313Z,2836.00
2018-02-23T07:37:15.201Z,2848.00
2018-02-23T07:38:15.086Z,2848.00
2018-02-23T07:39:14.971Z,2908.00
2018-02-23T07:40:14.872Z,2932.00
2018-02-23T07:41:14.754Z,2952.00
2018-02-23T07:42:14.655Z,2980.00
2018-02-23T07:43:14.538Z,2976.00
2018-02-23T07:44:14.425Z,2980.00
2018-02-23T07:45:14.323Z,3024.00
2018-02-23T07:46:14.201Z,3068.00
2018-02-23T07:47:14.104Z,3076.00
2018-02-23T07:48:13.986Z,3068.00
2018-02-23T07:49:13.882Z,3092.00
2018-02-23T07:50:13.776Z,3108.00
2018-02-23T07:51:13.660Z,3156.00
2018-02-23T07:52:13.551Z,3156.00
2018-02-23T07:53:13.438Z,3184.00
2018-02-23T07:54:13.323Z,3208.00
2018-02-23T07:55:13.208Z,3244.00
2018-02-23T07:56:13.109Z,3268.00
2018-02-23T07:57:12.993Z,3300.00
2018-02-23T07:58:12.887Z,3304.00
2018-02-23T07:59:12.772Z,3292.00
2018-02-23T08:00:12.662Z,3316.00
2018-02-23T08:01:12.555Z,3376.00
2018-02-23T08:02:12.439Z,3404.00
2018-02-23T08:03:12.331Z,3428.00
2018-02-23T08:04:12.219Z,3436.00
2018-02-23T08:05:12.119Z,3476.00
2018-02-23T08:06:11.999Z,3488.00
2018-02-23T08:07:11.896Z,3468.00
2018-02-23T08:08:11.785Z,3536.00
2018-02-23T08:09:11.677Z,3576.00
2018-02-23T08:10:11.562Z,3576.00
2018-02-23T08:11:11.444Z,3660.00
2018-02-23T08:12:11.342Z,3716.00
2018-02-23T08:13:11.221Z,3764.00
2018-02-23T08:14:11.122Z,3784.00
2018-02-23T08:15:11.005Z,3816.00
2018-02-23T08:16:10.898Z,3852.00
2018-02-23T08:17:10.794Z,3860.00
2018-02-23T08:18:10.689Z,3860.00
2018-02-23T08:19:10.564Z,3844.00
2018-02-23T08:20:10.464Z,3852.00
2018-02-23T08:21:10.347Z,3928.00
2018-02-23T08:22:10.240Z,3976.00
2018-02-23T08:23:10.139Z,3992.00
2018-02-23T08:24:10.012Z,4004.00
2018-02-23T08:25:09.910Z,3992.00
2018-02-23T08:26:09.792Z,4052.00
2018-02-23T08:27:09.691Z,4176.00
2018-02-23T08:28:09.584Z,4116.00
2018-02-23T08:29:09.470Z,4208.00
2018-02-23T08:30:09.358Z,4220.00
2018-02-23T08:31:09.260Z,4168.00
2018-02-23T08:32:09.139Z,4152.00
2018-02-23T08:33:09.036Z,4204.00
2018-02-23T08:34:08.922Z,4276.00
2018-02-23T08:35:08.811Z,4240.00
2018-02-23T08:36:08.707Z,4256.00
2018-02-23T08:37:08.591Z,4344.00
2018-02-23T08:38:08.479Z,4424.00
2018-02-23T08:39:08.375Z,4512.00
2018-02-23T08:40:08.263Z,4908.00
2018-02-23T08:41:08.152Z,4528.00
2018-02-23T08:42:08.046Z,4664.00
2018-02-23T08:43:07.928Z,4588.00
2018-02-23T08:44:07.824Z,4600.00
2018-02-23T08:45:07.703Z,4676.00
2018-02-23T08:46:07.656Z,4724.00
2018-02-23T08:47:07.488Z,4864.00
2018-02-23T08:48:07.392Z,4888.00
2018-02-23T08:49:07.277Z,4748.00
2018-02-23T08:50:07.159Z,4880.00
2018-02-23T08:51:07.045Z,4852.00
2018-02-23T08:52:06.952Z,4708.00
2018-02-23T08:53:06.828Z,5216.00
2018-02-23T08:54:06.728Z,5204.00
2018-02-23T08:55:06.617Z,5180.00
2018-02-23T08:56:06.506Z,5148.00
2018-02-23T08:57:06.392Z,5200.00
2018-02-23T08:58:06.294Z,5048.00
2018-02-23T08:59:06.178Z,4996.00
2018-02-23T09:00:06.072Z,5032.00
2018-02-23T09:01:05.955Z,4968.00
2018-02-23T09:02:05.853Z,5048.00
2018-02-23T09:03:05.742Z,5184.00
2018-02-23T09:04:05.635Z,5192.00
2018-02-23T09:05:05.525Z,5132.00
2018-02-23T09:06:05.420Z,5312.00
2018-02-23T09:07:05.297Z,5348.00
2018-02-23T09:08:05.191Z,5176.00
2018-02-23T09:09:05.086Z,6044.00
2018-02-23T09:10:04.982Z,5060.00
2018-02-23T09:11:04.853Z,4764.00
2018-02-23T09:12:04.761Z,5344.00
2018-02-23T09:13:04.635Z,6988.00
2018-02-23T09:14:04.536Z,5896.00
2018-02-23T09:15:04.421Z,5508.00
2018-02-23T09:16:04.313Z,5204.00
2018-02-23T09:17:04.208Z,5644.00
2018-02-23T09:18:04.111Z,5900.00
2018-02-23T09:19:03.977Z,5172.00
2018-02-23T09:20:03.884Z,6088.00
2018-02-23T09:21:03.760Z,5420.00
2018-02-23T09:22:03.665Z,5416.00
2018-02-23T09:23:03.543Z,5100.00
2018-02-23T09:24:03.434Z,5176.00
2018-02-23T09:25:03.326Z,6336.00
2018-02-23T09:26:03.224Z,7532.00
2018-02-23T09:27:03.108Z,6860.00
2018-02-23T09:28:03.003Z,5856.00
2018-02-23T09:29:02.880Z,5716.00
2018-02-23T09:30:02.848Z,5216.00
2018-02-23T09:31:02.665Z,5980.00
2018-02-23T09:32:02.559Z,6440.00
2018-02-23T09:33:02.454Z,5880.00
2018-02-23T09:34:02.341Z,6120.00
2018-02-23T09:35:02.227Z,6716.00
2018-02-23T09:36:02.127Z,5984.00
2018-02-23T09:37:02.025Z,5888.00
2018-02-23T09:38:01.908Z,5560.00
2018-02-23T09:39:01.810Z,5336.00
2018-02-23T09:40:01.686Z,5072.00
2018-02-23T09:41:01.592Z,4800.00
2018-02-23T09:42:01.464Z,4888.00
2018-02-23T09:43:01.367Z,4572.00
2018-02-23T09:44:01.248Z,4820.00
2018-02-23T09:45:01.152Z,4400.00
2018-02-23T09:46:01.036Z,4300.00
2018-02-23T09:47:00.933Z,4604.00
2018-02-23T09:48:00.819Z,4600.00
2018-02-23T09:49:00.706Z,4704.00
2018-02-23T09:50:00.595Z,4616.00
2018-02-23T09:51:00.483Z,4596.00
2018-02-23T09:52:00.373Z,4680.00
2018-02-23T09:53:00.271Z,4696.00
2018-02-23T09:54:00.154Z,4632.00
2018-02-23T09:55:00.057Z,4740.00
2018-02-23T09:55:59.940Z,4828.00
2018-02-23T09:56:59.832Z,4892.00
2018-02-23T09:57:59.729Z,4840.00
2018-02-23T09:58:59.616Z,4776.00
2018-02-23T09:59:59.514Z,4744.00
2018-02-23T10:00:59.387Z,4784.00
2018-02-23T10:01:59.296Z,4736.00
2018-02-23T10:02:59.173Z,4720.00
2018-02-23T10:03:59.073Z,4608.00
2018-02-23T10:04:58.977Z,4524.00
2018-02-23T10:05:58.852Z,4456.00
2018-02-23T10:06:58.733Z,4320.00
2018-02-23T10:07:58.631Z,4348.00
2018-02-23T10:08:58.530Z,4392.00
2018-02-23T10:09:58.412Z,4432.00
2018-02-23T10:10:58.309Z,4424.00
2018-02-23T10:11:58.188Z,4392.00
2018-02-23T10:12:58.099Z,4444.00
2018-02-23T10:13:57.973Z,4496.00
2018-02-23T10:14:57.874Z,4488.00
2018-02-23T10:15:57.756Z,4468.00
2018-02-23T10:16:57.646Z,4440.00
2018-02-23T10:17:57.534Z,4492.00
2018-02-23T10:18:57.432Z,4600.00
2018-02-23T10:19:57.324Z,4668.00
2018-02-23T10:20:57.237Z,4688.00
2018-02-23T10:21:57.096Z,4704.00
2018-02-23T10:22:56.991Z,4712.00
2018-02-23T10:23:56.892Z,4704.00
2018-02-23T10:24:56.774Z,4632.00
2018-02-23T10:25:56.673Z,4588.00
2018-02-23T10:26:56.564Z,4604.00
2018-02-23T10:27:56.453Z,4652.00
2018-02-23T10:28:56.337Z,4660.00
2018-02-23T10:29:56.227Z,4676.00
2018-02-23T10:30:56.113Z,4652.00
2018-02-23T10:31:56.015Z,4668.00
2018-02-23T10:32:55.903Z,4680.00
2018-02-23T10:33:55.797Z,4692.00
2018-02-23T10:34:55.689Z,4780.00
2018-02-23T10:35:55.573Z,4820.00
2018-02-23T10:36:55.478Z,4796.00
2018-02-23T10:37:55.352Z,4736.00
2018-02-23T10:38:55.254Z,4692.00
2018-02-23T10:39:55.136Z,4676.00
2018-02-23T10:40:55.039Z,4612.00
2018-02-23T10:41:54.918Z,4584.00
2018-02-23T10:42:54.823Z,4580.00
2018-02-23T10:43:54.702Z,4584.00
2018-02-23T10:44:54.597Z,4612.00
2018-02-23T10:45:54.480Z,4676.00
2018-02-23T10:46:54.378Z,4708.00
2018-02-23T10:47:54.287Z,4704.00
2018-02-23T10:48:54.153Z,4676.00
2018-02-23T10:49:54.054Z,4584.00
2018-02-23T10:50:53.968Z,4636.00
2018-02-23T10:51:53.829Z,4668.00
2018-02-23T10:52:53.725Z,4712.00
2018-02-23T10:53:53.612Z,4784.00
2018-02-23T10:54:53.501Z,4852.00
2018-02-23T10:55:53.397Z,4904.00
2018-02-23T10:56:53.290Z,4940.00
2018-02-23T10:57:53.180Z,4940.00
2018-02-23T10:58:53.076Z,4900.00
2018-02-23T10:59:52.974Z,4856.00
2018-02-23T11:00:52.855Z,4844.00
2018-02-23T11:01:52.735Z,4764.00
2018-02-23T11:02:52.632Z,4736.00
2018-02-23T11:03:52.520Z,4660.00
2018-02-23T11:04:52.414Z,4580.00
2018-02-23T11:05:52.320Z,4608.00
2018-02-23T11:06:52.203Z,4608.00
2018-02-23T11:07:52.091Z,4496.00
2018-02-23T11:08:51.977Z,4456.00
2018-02-23T11:09:51.871Z,4460.00
2018-02-23T11:10:51.756Z,4452.00
2018-02-23T11:11:51.663Z,4408.00
2018-02-23T11:12:51.560Z,4428.00
2018-02-23T11:13:51.441Z,4440.00
2018-02-23T11:14:51.335Z,4408.00
2018-02-23T11:15:51.217Z,4460.00
2018-02-23T11:16:51.117Z,4476.00
2018-02-23T11:17:51.017Z,4440.00
2018-02-23T11:18:50.908Z,4364.00
2018-02-23T11:19:50.793Z,4344.00
2018-02-23T11:20:50.685Z,4264.00
2018-02-23T11:21:50.569Z,4208.00
2018-02-23T11:22:50.455Z,4244.00
2018-02-23T11:23:50.361Z,4308.00
2018-02-23T11:24:50.235Z,4308.00
2018-02-23T11:25:50.135Z,4128.00
2018-02-23T11:26:50.025Z,4124.00
2018-02-23T11:27:49.914Z,4132.00
2018-02-23T11:28:49.822Z,4076.00
2018-02-23T11:29:49.702Z,4032.00
2018-02-23T11:30:49.599Z,4124.00
2018-02-23T11:31:49.478Z,4208.00
2018-02-23T11:32:49.369Z,4284.00
2018-02-23T11:33:49.270Z,4380.00
2018-02-23T11:34:49.155Z,4380.00
2018-02-23T11:35:49.048Z,4376.00
2018-02-23T11:36:48.937Z,4372.00
2018-02-23T11:37:48.835Z,4420.00
2018-02-23T11:38:48.721Z,4468.00
2018-02-23T11:39:48.614Z,4432.00
2018-02-23T11:40:48.500Z,4408.00
2018-02-23T11:41:48.404Z,4480.00
2018-02-23T11:42:48.290Z,4572.00
2018-02-23T11:43:48.179Z,4596.00
2018-02-23T11:44:48.072Z,4600.00
2018-02-23T11:45:47.953Z,4640.00
2018-02-23T11:46:47.869Z,4628.00
2018-02-23T11:47:47.749Z,4608.00
2018-02-23T11:48:47.631Z,4532.00
2018-02-23T11:49:47.533Z,4748.00
2018-02-23T11:50:47.419Z,4848.00
2018-02-23T11:51:47.313Z,4944.00
2018-02-23T11:52:47.195Z,4968.00
2018-02-23T11:53:47.094Z,5060.00
2018-02-23T11:54:46.972Z,5148.00
2018-02-23T11:55:46.878Z,5160.00
2018-02-23T11:56:46.770Z,5072.00
2018-02-23T11:57:46.662Z,4960.00
2018-02-23T11:58:46.552Z,5000.00
2018-02-23T11:59:46.434Z,5128.00
2018-02-23T12:00:46.336Z,5252.00
2018-02-23T12:01:46.224Z,5220.00
2018-02-23T12:02:46.113Z,5136.00
2018-02-23T12:03:46.010Z,4880.00
2018-02-23T12:04:45.889Z,4648.00
2018-02-23T12:05:45.801Z,4444.00
2018-02-23T12:06:45.685Z,4484.00
2018-02-23T12:07:45.572Z,4300.00
2018-02-23T12:08:45.474Z,4252.00
2018-02-23T12:09:45.356Z,4356.00
2018-02-23T12:10:45.263Z,4468.00
2018-02-23T12:11:45.145Z,4436.00
2018-02-23T12:12:45.026Z,4288.00
2018-02-23T12:13:44.935Z,4180.00
2018-02-23T12:14:44.819Z,4172.00
2018-02-23T12:15:44.705Z,4168.00
2018-02-23T12:16:44.604Z,4092.00
2018-02-23T12:17:44.486Z,4084.00
2018-02-23T12:18:44.382Z,4080.00
2018-02-23T12:19:44.293Z,4016.00
2018-02-23T12:20:44.158Z,4044.00
2018-02-23T12:21:44.059Z,4104.00
2018-02-23T12:22:43.954Z,4020.00
2018-02-23T12:23:43.839Z,3940.00
2018-02-23T12:24:43.742Z,3936.00
2018-02-23T12:25:43.621Z,4020.00
2018-02-23T12:26:43.521Z,4120.00
2018-02-23T12:27:43.406Z,4216.00
2018-02-23T12:28:43.304Z,4184.00
2018-02-23T12:29:43.204Z,4176.00
2018-02-23T12:30:43.080Z,4204.00
2018-02-23T12:31:42.974Z,4100.00
2018-02-23T12:32:42.887Z,4132.00
2018-02-23T12:33:42.761Z,4200.00
2018-02-23T12:34:42.662Z,4188.00
2018-02-23T12:35:42.539Z,4088.00
2018-02-23T12:36:42.439Z,4020.00
2018-02-23T12:37:42.334Z,4000.00